Time;durP1;ratioP1;P1;durP2;ratioP2;P2;SDS_P1;SDS_P2;PMS_P1;PMS_P2;Temp;Humidity;BMP_temperature;BMP_pressure;BME280_temperature;BME280_humidity;BME280_pressure;Samples;Min_cycle;Max_cycle;Signal;HPM_P1;HPM_P2
2021/12/04 00:01:49;;;;;;;4.50;2.40;;;;;;;;;;5097627;28;20483;-64
2021/12/04 00:04:22;;;;;;;4.37;3.40;;;;;;;;;;5097462;28;20866;-64
2021/12/04 00:06:50;;;;;;;3.17;2.87;;;;;;;;;;5097671;28;20443;-64
2021/12/04 00:09:20;;;;;;;3.63;3.23;;;;;;;;;;5097505;28;20474;-64
2021/12/04 00:11:54;;;;;;;2.80;2.60;;;;;;;;;;5097100;28;20439;-64
2021/12/04 00:14:22;;;;;;;2.90;2.47;;;;;;;;;;5097515;28;20453;-64
2021/12/04 00:16:51;;;;;;;4.53;2.50;;;;;;;;;;5097559;28;20440;-64
2021/12/04 00:19:20;;;;;;;3.63;2.30;;;;;;;;;;5097507;28;20550;-64
2021/12/04 00:21:48;;;;;;;8.43;3.23;;;;;;;;;;5097514;28;20969;-64
2021/12/04 00:24:16;;;;;;;3.10;2.60;;;;;;;;;;5097482;28;20447;-64
2021/12/04 00:26:45;;;;;;;4.03;2.97;;;;;;;;;;5097192;28;20447;-64
2021/12/04 00:29:13;;;;;;;3.47;2.90;;;;;;;;;;5093361;28;20457;-64
2021/12/04 00:31:46;;;;;;;3.83;3.13;;;;;;;;;;5076991;28;20445;-64
2021/12/04 00:34:14;;;;;;;5.03;2.27;;;;;;;;;;5076922;28;20447;-64
2021/12/04 00:37:00;;;;;;;2.97;2.77;;;;;;;;;;5077280;28;20479;-64
2021/12/04 00:50:35;;;;;;;4.47;3.40;;;;;;;;;;5043389;28;20450;-64
2021/12/04 00:53:04;;;;;;;3.17;2.83;;;;;;;;;;5100673;28;20439;-64
2021/12/04 00:55:32;;;;;;;7.03;3.03;;;;;;;;;;5100669;28;20965;-64
2021/12/04 00:58:00;;;;;;;3.60;2.70;;;;;;;;;;5100236;28;20485;-64
2021/12/04 01:00:28;;;;;;;3.57;2.87;;;;;;;;;;5100723;28;20453;-64
2021/12/04 01:02:56;;;;;;;3.47;3.00;;;;;;;;;;5100230;28;20628;-64
2021/12/04 01:05:25;;;;;;;4.37;3.17;;;;;;;;;;5100295;28;20443;-64
2021/12/04 01:07:53;;;;;;;4.77;3.13;;;;;;;;;;5098405;28;20440;-66
2021/12/04 01:10:22;;;;;;;3.17;2.43;;;;;;;;;;5083068;28;20827;-66
2021/12/04 01:12:50;;;;;;;2.33;2.10;;;;;;;;;;5092025;28;20443;-65
2021/12/04 01:15:18;;;;;;;2.47;2.27;;;;;;;;;;5089819;28;20439;-66
2021/12/04 01:17:46;;;;;;;3.33;2.77;;;;;;;;;;5091948;28;20436;-66
2021/12/04 01:20:14;;;;;;;2.83;2.50;;;;;;;;;;5089586;28;20436;-66
2021/12/04 01:22:42;;;;;;;2.97;2.40;;;;;;;;;;5091348;28;20476;-67
2021/12/04 01:25:10;;;;;;;4.13;2.40;;;;;;;;;;5089903;28;20798;-66
2021/12/04 01:27:39;;;;;;;2.53;2.23;;;;;;;;;;5086388;28;20447;-66
2021/12/04 01:30:09;;;;;;;3.67;2.80;;;;;;;;;;5091498;28;20510;-66
2021/12/04 01:32:36;;;;;;;6.30;2.93;;;;;;;;;;5087061;28;20433;-66
2021/12/04 01:35:05;;;;;;;4.00;2.97;;;;;;;;;;5090127;28;20450;-67
2021/12/04 01:37:33;;;;;;;3.07;2.40;;;;;;;;;;5092090;28;20455;-66
2021/12/04 01:40:01;;;;;;;5.93;2.60;;;;;;;;;;5090135;28;20559;-66
2021/12/04 01:42:32;;;;;;;2.70;2.50;;;;;;;;;;5087652;28;20472;-66
2021/12/04 01:45:01;;;;;;;3.87;2.77;;;;;;;;;;5088955;28;20525;-66
2021/12/04 01:47:29;;;;;;;2.50;2.30;;;;;;;;;;5090630;28;20446;-66
2021/12/04 01:49:59;;;;;;;2.23;2.03;;;;;;;;;;5086768;28;20457;-66
2021/12/04 01:52:28;;;;;;;2.53;2.33;;;;;;;;;;5090409;28;20450;-66
2021/12/04 01:54:56;;;;;;;2.40;2.20;;;;;;;;;;5090382;28;20433;-65
2021/12/04 01:57:24;;;;;;;2.50;2.03;;;;;;;;;;5088756;28;20440;-66
2021/12/04 01:59:52;;;;;;;3.13;1.80;;;;;;;;;;5091812;28;20456;-65
2021/12/04 02:02:22;;;;;;;1.90;1.80;;;;;;;;;;5089053;28;20479;-66
2021/12/04 02:04:50;;;;;;;2.17;1.90;;;;;;;;;;5091392;28;20984;-66
2021/12/04 02:07:20;;;;;;;1.90;1.70;;;;;;;;;;5088576;28;20922;-66
2021/12/04 02:09:48;;;;;;;2.93;2.13;;;;;;;;;;5088364;28;20456;-67
2021/12/04 02:12:16;;;;;;;2.20;1.80;;;;;;;;;;5086326;28;20440;-66
2021/12/04 02:14:44;;;;;;;3.03;2.30;;;;;;;;;;5086152;28;20441;-66
2021/12/04 02:17:12;;;;;;;3.10;2.10;;;;;;;;;;5096338;28;20452;-66
2021/12/04 02:19:42;;;;;;;1.90;1.80;;;;;;;;;;5097241;28;20521;-66
2021/12/04 02:22:11;;;;;;;1.77;1.67;;;;;;;;;;5094601;28;20483;-66
2021/12/04 02:24:39;;;;;;;2.00;1.90;;;;;;;;;;5094411;28;20436;-66
2021/12/04 02:27:07;;;;;;;1.97;1.87;;;;;;;;;;5092909;28;20812;-66
2021/12/04 02:29:35;;;;;;;1.40;1.30;;;;;;;;;;5084136;28;20460;-67
2021/12/04 02:32:03;;;;;;;2.20;1.77;;;;;;;;;;5097041;28;20436;-67
2021/12/04 02:34:31;;;;;;;3.73;1.60;;;;;;;;;;5098089;28;20497;-66
2021/12/04 02:37:00;;;;;;;2.20;2.00;;;;;;;;;;5097714;28;20989;-67
2021/12/04 02:39:32;;;;;;;2.00;1.80;;;;;;;;;;5087846;28;20554;-67
2021/12/04 02:42:00;;;;;;;1.90;1.57;;;;;;;;;;5098169;28;20497;-67
2021/12/04 02:44:33;;;;;;;3.37;1.67;;;;;;;;;;5098651;28;20507;-67
2021/12/04 02:47:01;;;;;;;1.90;1.67;;;;;;;;;;5098059;28;20444;-67
2021/12/04 02:49:29;;;;;;;1.70;1.60;;;;;;;;;;5098514;28;20463;-66
2021/12/04 02:52:01;;;;;;;1.60;1.50;;;;;;;;;;5098263;28;20442;-66
2021/12/04 02:54:32;;;;;;;2.57;1.57;;;;;;;;;;5098651;28;20530;-67
2021/12/04 02:57:00;;;;;;;2.97;1.60;;;;;;;;;;5098097;28;20447;-66
2021/12/04 02:59:28;;;;;;;1.83;1.63;;;;;;;;;;5098127;28;20466;-67
2021/12/04 03:01:57;;;;;;;2.10;1.53;;;;;;;;;;5098319;28;20443;-66
2021/12/04 03:04:27;;;;;;;2.97;1.40;;;;;;;;;;5098249;28;20439;-67
2021/12/04 03:06:55;;;;;;;1.60;1.50;;;;;;;;;;5097741;28;20530;-67
2021/12/04 03:09:23;;;;;;;2.90;1.50;;;;;;;;;;5097989;28;20467;-66
2021/12/04 03:11:53;;;;;;;1.57;1.47;;;;;;;;;;5097872;28;20450;-66
2021/12/04 03:14:22;;;;;;;1.63;1.53;;;;;;;;;;5097896;28;20450;-66
2021/12/04 03:16:50;;;;;;;2.27;2.00;;;;;;;;;;5098055;28;20845;-66
2021/12/04 03:19:18;;;;;;;1.53;1.40;;;;;;;;;;5097692;28;20986;-66
2021/12/04 03:21:46;;;;;;;1.40;1.27;;;;;;;;;;5097981;28;20449;-66
2021/12/04 03:24:16;;;;;;;2.53;1.57;;;;;;;;;;5098103;28;20445;-66
2021/12/04 03:26:46;;;;;;;2.13;1.93;;;;;;;;;;5097878;28;20446;-66
2021/12/04 03:29:18;;;;;;;3.07;1.40;;;;;;;;;;5093322;28;21038;-66
2021/12/04 03:32:07;;;;;;;3.20;1.40;;;;;;;;;;5077598;28;20527;-66
2021/12/04 03:40:11;;;;;;;1.30;1.20;;;;;;;;;;5080980;28;20447;-66
2021/12/04 03:42:40;;;;;;;1.20;1.10;;;;;;;;;;5077243;28;20979;-66
2021/12/04 03:45:10;;;;;;;1.33;1.13;;;;;;;;;;5077583;28;20522;-66
2021/12/04 03:47:41;;;;;;;1.47;1.37;;;;;;;;;;5077706;28;20455;-66
2021/12/04 03:50:10;;;;;;;1.47;1.03;;;;;;;;;;5077585;28;20444;-66
2021/12/04 03:52:38;;;;;;;3.67;1.27;;;;;;;;;;5088179;28;20918;-66
2021/12/04 03:55:07;;;;;;;1.40;1.27;;;;;;;;;;5097800;28;20453;-66
2021/12/04 03:57:36;;;;;;;1.13;1.13;;;;;;;;;;5097269;28;20454;-66
2021/12/04 04:00:05;;;;;;;1.13;1.03;;;;;;;;;;5097726;28;20444;-66
2021/12/04 04:02:34;;;;;;;4.03;1.33;;;;;;;;;;5097274;28;20486;-66
2021/12/04 04:05:02;;;;;;;1.93;1.23;;;;;;;;;;5097176;28;20439;-66
2021/12/04 04:07:30;;;;;;;1.70;1.17;;;;;;;;;;5097704;28;20458;-66
2021/12/04 04:09:58;;;;;;;1.43;1.33;;;;;;;;;;5097457;28;20460;-66
2021/12/04 04:12:26;;;;;;;1.20;1.10;;;;;;;;;;5097162;28;20444;-67
2021/12/04 04:14:54;;;;;;;1.30;1.20;;;;;;;;;;5097333;28;20454;-66
2021/12/04 04:17:22;;;;;;;1.40;1.30;;;;;;;;;;5097327;28;20446;-66
2021/12/04 04:19:51;;;;;;;1.73;1.30;;;;;;;;;;5100329;28;20489;-66
2021/12/04 04:22:19;;;;;;;1.03;1.00;;;;;;;;;;5101483;28;20445;-66
2021/12/04 04:24:47;;;;;;;1.10;1.00;;;;;;;;;;5101252;28;20815;-67
2021/12/04 04:27:15;;;;;;;2.00;1.20;;;;;;;;;;5100823;28;20813;-66
2021/12/04 04:29:43;;;;;;;1.20;1.17;;;;;;;;;;5092204;28;20816;-67
2021/12/04 04:32:11;;;;;;;1.40;1.10;;;;;;;;;;5080734;28;20823;-67
2021/12/04 04:34:39;;;;;;;1.20;1.10;;;;;;;;;;5081070;28;20440;-67
2021/12/04 04:37:17;;;;;;;1.27;1.17;;;;;;;;;;5084323;28;20481;-66
2021/12/04 04:59:22;;;;;;;1.90;0.97;;;;;;;;;;5100781;28;20470;-66
2021/12/04 05:10:24;;;;;;;1.00;1.00;;;;;;;;;;5100655;28;20449;-67
2021/12/04 05:12:54;;;;;;;0.80;0.80;;;;;;;;;;5100481;28;20458;-66
2021/12/04 05:15:34;;;;;;;0.93;0.90;;;;;;;;;;5100291;28;20943;-67
2021/12/04 05:18:11;;;;;;;1.00;0.90;;;;;;;;;;5100221;28;20468;-66
2021/12/04 05:20:40;;;;;;;1.07;0.93;;;;;;;;;;5100244;28;20443;-66
2021/12/04 05:23:10;;;;;;;1.17;0.90;;;;;;;;;;5100072;28;20483;-66
2021/12/04 05:25:39;;;;;;;1.43;0.80;;;;;;;;;;5100295;28;20501;-66
2021/12/04 05:28:08;;;;;;;0.70;0.70;;;;;;;;;;5099914;28;20899;-66
2021/12/04 05:30:37;;;;;;;2.00;0.90;;;;;;;;;;5084417;28;20448;-66
2021/12/04 05:33:05;;;;;;;0.87;0.70;;;;;;;;;;5079965;28;20444;-66
2021/12/04 05:35:33;;;;;;;0.73;0.73;;;;;;;;;;5079394;28;20487;-65
2021/12/04 05:38:01;;;;;;;2.20;0.80;;;;;;;;;;5090978;28;20482;-65
2021/12/04 05:40:29;;;;;;;1.30;1.20;;;;;;;;;;5079237;28;20877;-65
2021/12/04 05:43:02;;;;;;;1.43;0.90;;;;;;;;;;5079752;28;20454;-65
2021/12/04 05:45:32;;;;;;;2.33;1.10;;;;;;;;;;5079388;28;20824;-65
2021/12/04 05:48:04;;;;;;;0.80;0.80;;;;;;;;;;5079298;28;20473;-65
2021/12/04 05:53:19;;;;;;;0.70;0.70;;;;;;;;;;5064229;28;20539;-65
2021/12/04 05:55:54;;;;;;;2.40;0.90;;;;;;;;;;5090096;28;20942;-65
2021/12/04 05:58:24;;;;;;;1.13;1.00;;;;;;;;;;5091054;28;20473;-65
2021/12/04 06:00:54;;;;;;;0.60;0.60;;;;;;;;;;5088515;28;20515;-65
2021/12/04 06:03:23;;;;;;;1.00;1.00;;;;;;;;;;5091575;28;20519;-65
2021/12/04 06:05:51;;;;;;;1.17;1.07;;;;;;;;;;5086228;28;20431;-65
2021/12/04 06:08:20;;;;;;;0.60;0.60;;;;;;;;;;5090512;28;20466;-65
2021/12/04 06:10:49;;;;;;;0.70;0.70;;;;;;;;;;5089970;28;20486;-65
2021/12/04 06:13:17;;;;;;;0.60;0.60;;;;;;;;;;5088713;28;20960;-64
2021/12/04 06:15:46;;;;;;;1.47;0.90;;;;;;;;;;5089750;28;20440;-64
2021/12/04 06:18:15;;;;;;;1.20;0.80;;;;;;;;;;5088650;28;20463;-64
2021/12/04 06:23:31;;;;;;;1.20;1.00;;;;;;;;;;5089181;28;20470;-64
2021/12/04 06:25:59;;;;;;;0.80;0.80;;;;;;;;;;5087962;28;20427;-64
2021/12/04 06:28:27;;;;;;;0.97;0.90;;;;;;;;;;5089246;28;20475;-64
2021/12/04 06:30:59;;;;;;;0.80;0.80;;;;;;;;;;5097289;28;20778;-64
2021/12/04 06:33:27;;;;;;;0.90;0.70;;;;;;;;;;5086286;28;20445;-64
2021/12/04 06:35:55;;;;;;;0.80;0.80;;;;;;;;;;5078019;28;20555;-64
2021/12/04 06:38:24;;;;;;;1.87;0.80;;;;;;;;;;5088937;28;20491;-65
2021/12/04 06:40:52;;;;;;;1.10;1.00;;;;;;;;;;5085557;28;20460;-65
2021/12/04 06:43:20;;;;;;;1.20;1.13;;;;;;;;;;5091521;28;21764;-65
2021/12/04 06:45:56;;;;;;;1.27;0.80;;;;;;;;;;5095912;28;20228;-64
2021/12/04 06:48:31;;;;;;;1.83;1.17;;;;;;;;;;5078022;28;20464;-64
2021/12/04 06:51:04;;;;;;;2.27;1.37;;;;;;;;;;5078199;28;20212;-64
2021/12/04 06:53:37;;;;;;;2.50;1.00;;;;;;;;;;5078226;28;20446;-65
2021/12/04 06:56:07;;;;;;;1.17;1.07;;;;;;;;;;5077742;28;20444;-64
2021/12/04 06:58:36;;;;;;;0.80;0.80;;;;;;;;;;5085285;28;20552;-64
2021/12/04 07:01:04;;;;;;;1.33;0.80;;;;;;;;;;5089527;28;20432;-67
2021/12/04 07:03:34;;;;;;;1.27;0.70;;;;;;;;;;5091113;28;20527;-66
2021/12/04 07:06:02;;;;;;;3.40;0.80;;;;;;;;;;5088700;28;20634;-66
2021/12/04 07:08:30;;;;;;;0.60;0.60;;;;;;;;;;5091268;28;20456;-66
2021/12/04 07:10:58;;;;;;;1.23;0.90;;;;;;;;;;5089274;28;20439;-65
2021/12/04 07:13:26;;;;;;;0.70;0.70;;;;;;;;;;5078901;28;20447;-66
2021/12/04 07:16:01;;;;;;;1.27;0.93;;;;;;;;;;5087046;28;20445;-67
2021/12/04 07:18:29;;;;;;;2.00;0.90;;;;;;;;;;5087864;28;20535;-66
2021/12/04 07:20:59;;;;;;;1.00;0.87;;;;;;;;;;5087981;28;20444;-66
2021/12/04 07:23:27;;;;;;;0.80;0.80;;;;;;;;;;5090046;28;20432;-66
2021/12/04 07:25:55;;;;;;;0.80;0.80;;;;;;;;;;5085670;28;20480;-66
2021/12/04 07:28:23;;;;;;;0.60;0.60;;;;;;;;;;5091346;28;20235;-66
2021/12/04 07:30:52;;;;;;;0.80;0.80;;;;;;;;;;5087151;28;20854;-66
2021/12/04 07:33:20;;;;;;;1.50;1.40;;;;;;;;;;5089601;28;20456;-66
2021/12/04 07:35:48;;;;;;;1.73;0.90;;;;;;;;;;5087542;28;20460;-66
2021/12/04 07:38:17;;;;;;;0.90;0.90;;;;;;;;;;5090409;28;20475;-66
2021/12/04 07:40:45;;;;;;;1.37;0.90;;;;;;;;;;5087336;28;20431;-66
2021/12/04 07:43:13;;;;;;;0.80;0.80;;;;;;;;;;5088217;28;20873;-66
2021/12/04 07:45:41;;;;;;;1.60;1.03;;;;;;;;;;5087754;28;20214;-66
2021/12/04 07:48:09;;;;;;;0.87;0.87;;;;;;;;;;5087726;28;20462;-66
2021/12/04 07:50:38;;;;;;;1.00;0.93;;;;;;;;;;5087452;28;20440;-66
2021/12/04 07:53:06;;;;;;;1.07;1.07;;;;;;;;;;5089407;28;20436;-66
2021/12/04 07:55:35;;;;;;;0.83;0.83;;;;;;;;;;5091831;28;20908;-64
2021/12/04 07:58:03;;;;;;;1.80;0.87;;;;;;;;;;5092736;28;20221;-65
2021/12/04 08:00:31;;;;;;;1.53;0.70;;;;;;;;;;5092823;28;20198;-64
2021/12/04 08:03:01;;;;;;;0.70;0.70;;;;;;;;;;5092896;28;20462;-63
2021/12/04 08:05:29;;;;;;;0.70;0.70;;;;;;;;;;5091873;28;20507;-65
2021/12/04 08:07:58;;;;;;;0.90;0.90;;;;;;;;;;5094299;28;20441;-64
2021/12/04 08:10:26;;;;;;;1.10;1.00;;;;;;;;;;5091673;28;20467;-64
2021/12/04 08:12:55;;;;;;;1.90;0.93;;;;;;;;;;5093625;28;20778;-65
2021/12/04 08:15:23;;;;;;;0.97;0.90;;;;;;;;;;5091696;28;20288;-64
2021/12/04 08:17:52;;;;;;;1.00;1.00;;;;;;;;;;5093618;28;20442;-64
2021/12/04 08:20:20;;;;;;;1.50;0.73;;;;;;;;;;5091418;28;20615;-64
2021/12/04 08:22:48;;;;;;;1.50;1.10;;;;;;;;;;5093069;28;20231;-64
2021/12/04 08:25:17;;;;;;;1.20;1.20;;;;;;;;;;5091732;28;20320;-65
2021/12/04 08:27:46;;;;;;;1.10;1.00;;;;;;;;;;5092349;28;20197;-64
2021/12/04 08:30:17;;;;;;;1.73;1.00;;;;;;;;;;5086468;28;20436;-65
2021/12/04 08:32:45;;;;;;;0.87;0.87;;;;;;;;;;5080859;28;20536;-65
2021/12/04 08:35:14;;;;;;;1.40;1.20;;;;;;;;;;5080359;28;20216;-64
2021/12/04 08:37:42;;;;;;;0.93;0.90;;;;;;;;;;5088999;28;20252;-65
2021/12/04 08:40:14;;;;;;;1.43;1.33;;;;;;;;;;5083925;28;20553;-64
2021/12/04 08:42:43;;;;;;;2.10;0.77;;;;;;;;;;5080430;28;20206;-65
2021/12/04 08:45:12;;;;;;;0.87;0.80;;;;;;;;;;5080507;28;20228;-65
2021/12/04 08:47:41;;;;;;;1.33;1.00;;;;;;;;;;5080556;28;20216;-64
2021/12/04 08:50:11;;;;;;;1.20;0.90;;;;;;;;;;5079922;28;20212;-64
2021/12/04 08:52:39;;;;;;;1.40;1.10;;;;;;;;;;5090955;28;20201;-64
2021/12/04 08:55:08;;;;;;;1.30;1.20;;;;;;;;;;5080881;28;20576;-64
2021/12/04 08:57:36;;;;;;;1.07;1.00;;;;;;;;;;5080287;28;20202;-64
2021/12/04 09:00:05;;;;;;;1.30;1.20;;;;;;;;;;5080388;28;20320;-64
2021/12/04 09:02:33;;;;;;;1.17;0.97;;;;;;;;;;5079874;28;20651;-64
2021/12/04 09:05:03;;;;;;;0.97;0.90;;;;;;;;;;5079132;28;20237;-64
2021/12/04 09:07:31;;;;;;;3.20;1.10;;;;;;;;;;5082134;28;20206;-65
2021/12/04 09:09:59;;;;;;;2.17;1.27;;;;;;;;;;5091770;28;20221;-64
2021/12/04 09:12:28;;;;;;;0.80;0.80;;;;;;;;;;5094650;28;20193;-64
2021/12/04 09:14:57;;;;;;;1.50;1.23;;;;;;;;;;5083044;28;20205;-64
2021/12/04 09:17:25;;;;;;;0.90;0.70;;;;;;;;;;5082529;28;20212;-64
2021/12/04 09:19:53;;;;;;;1.47;1.10;;;;;;;;;;5090271;28;20256;-64
2021/12/04 09:22:28;;;;;;;0.90;0.90;;;;;;;;;;5092785;28;20269;-65
2021/12/04 09:25:01;;;;;;;1.17;1.17;;;;;;;;;;5088683;28;20198;-65
2021/12/04 10:00:58;;;;;;;1.20;1.10;;;;;;;;;;5065696;28;20209;-64
2021/12/04 10:23:49;;;;;;;3.40;1.77;;;;;;;;;;5060116;28;20266;-65
2021/12/04 10:34:38;;;;;;;1.67;1.57;;;;;;;;;;5087360;28;20205;-64
2021/12/04 10:37:07;;;;;;;1.20;1.10;;;;;;;;;;5094845;28;20237;-64
2021/12/04 10:39:36;;;;;;;1.87;1.37;;;;;;;;;;5081085;28;20284;-65
2021/12/04 10:42:09;;;;;;;1.30;1.20;;;;;;;;;;5090900;28;20260;-64
2021/12/04 10:44:41;;;;;;;2.27;1.27;;;;;;;;;;5077950;28;20210;-64
2021/12/04 10:47:12;;;;;;;1.00;1.00;;;;;;;;;;5077961;28;20253;-64
2021/12/04 10:49:47;;;;;;;3.93;1.23;;;;;;;;;;5078031;28;20230;-65
2021/12/04 10:52:21;;;;;;;1.10;1.10;;;;;;;;;;5084977;28;20656;-65
2021/12/04 10:54:52;;;;;;;1.77;1.17;;;;;;;;;;5097599;28;20204;-64
2021/12/04 10:58:01;;;;;;;2.97;2.20;;;;;;;;;;5092334;28;20210;-65
2021/12/04 11:00:38;;;;;;;6.27;3.63;;;;;;;;;;5086784;28;20198;-65
2021/12/04 11:03:17;;;;;;;1.80;1.60;;;;;;;;;;5087790;28;20205;-64
2021/12/04 11:20:04;;;;;;;2.50;1.70;;;;;;;;;;5088469;28;20218;-65
2021/12/04 11:22:39;;;;;;;1.60;1.50;;;;;;;;;;5091354;28;20202;-65
2021/12/04 11:25:29;;;;;;;2.53;1.30;;;;;;;;;;5088014;28;20204;-66
2021/12/04 11:28:20;;;;;;;1.97;1.20;;;;;;;;;;5087980;28;20220;-65
2021/12/04 11:36:31;;;;;;;5.77;1.10;;;;;;;;;;5085695;28;20226;-65
2021/12/04 11:39:20;;;;;;;1.37;1.27;;;;;;;;;;5090963;28;20249;-65
2021/12/04 11:41:59;;;;;;;1.20;1.10;;;;;;;;;;5089431;28;20198;-65
2021/12/04 11:44:34;;;;;;;2.50;1.43;;;;;;;;;;5087897;28;20605;-66
2021/12/04 11:47:02;;;;;;;2.17;1.10;;;;;;;;;;5088086;28;20221;-65
2021/12/04 11:49:33;;;;;;;1.83;1.63;;;;;;;;;;5087840;28;20225;-66
2021/12/04 11:52:04;;;;;;;1.53;1.20;;;;;;;;;;5085965;28;20206;-65
2021/12/04 11:54:33;;;;;;;1.17;1.00;;;;;;;;;;5090296;28;20251;-65
2021/12/04 11:57:04;;;;;;;1.30;1.20;;;;;;;;;;5087482;28;20196;-65
2021/12/04 11:59:32;;;;;;;1.27;1.17;;;;;;;;;;5090338;28;20228;-65
2021/12/04 12:02:02;;;;;;;1.00;1.00;;;;;;;;;;5087761;28;20194;-66
2021/12/04 12:04:37;;;;;;;1.20;1.10;;;;;;;;;;5089940;28;20618;-66
2021/12/04 12:07:12;;;;;;;1.27;1.17;;;;;;;;;;5087787;28;20212;-66
2021/12/04 12:09:40;;;;;;;1.47;1.23;;;;;;;;;;5087670;28;20217;-66
2021/12/04 12:12:12;;;;;;;1.43;1.33;;;;;;;;;;5087538;28;20251;-65
2021/12/04 12:14:45;;;;;;;1.53;1.27;;;;;;;;;;5087971;28;20198;-65
2021/12/04 12:17:14;;;;;;;1.57;1.10;;;;;;;;;;5089590;28;20229;-65
2021/12/04 12:19:50;;;;;;;3.37;1.60;;;;;;;;;;5088163;28;21029;-65
2021/12/04 12:22:27;;;;;;;1.33;1.20;;;;;;;;;;5086770;28;20211;-65
2021/12/04 12:25:07;;;;;;;1.30;1.23;;;;;;;;;;5086866;28;20688;-65
2021/12/04 12:27:49;;;;;;;1.23;1.13;;;;;;;;;;5087388;28;20220;-65
2021/12/04 12:33:15;;;;;;;1.47;1.37;;;;;;;;;;5089897;28;20233;-65
2021/12/04 12:36:04;;;;;;;1.87;1.70;;;;;;;;;;5086999;28;20235;-65
2021/12/04 12:38:37;;;;;;;1.30;1.20;;;;;;;;;;5091553;28;20218;-66
2021/12/04 12:41:07;;;;;;;2.23;1.60;;;;;;;;;;5090715;28;20707;-65
2021/12/04 12:43:40;;;;;;;1.77;1.67;;;;;;;;;;5090904;28;20281;-66
2021/12/04 12:46:08;;;;;;;1.33;1.17;;;;;;;;;;5093414;28;20284;-66
2021/12/04 12:48:43;;;;;;;1.60;1.30;;;;;;;;;;5090928;28;20218;-66
2021/12/04 12:51:13;;;;;;;2.00;1.80;;;;;;;;;;5092615;28;20227;-65
2021/12/04 12:53:42;;;;;;;2.20;1.67;;;;;;;;;;5090838;28;20202;-65
2021/12/04 12:56:12;;;;;;;2.23;1.40;;;;;;;;;;5091908;28;20213;-65
2021/12/04 12:58:44;;;;;;;1.40;1.30;;;;;;;;;;5091504;28;20227;-66
2021/12/04 13:12:40;;;;;;;1.80;1.70;;;;;;;;;;5091379;28;20208;-68
2021/12/04 13:15:09;;;;;;;2.00;1.80;;;;;;;;;;5090216;28;20201;-68
2021/12/04 13:17:39;;;;;;;1.50;1.40;;;;;;;;;;5090418;28;20206;-67
2021/12/04 13:20:07;;;;;;;1.97;1.77;;;;;;;;;;5090480;28;20229;-68
2021/12/04 13:22:37;;;;;;;3.40;2.40;;;;;;;;;;5091748;28;20197;-68
2021/12/04 13:25:07;;;;;;;2.63;2.20;;;;;;;;;;5079784;28;20285;-68
2021/12/04 13:30:04;;;;;;;2.13;1.80;;;;;;;;;;5081276;28;20308;-68
2021/12/04 13:32:33;;;;;;;2.53;2.30;;;;;;;;;;5079605;28;20210;-68
2021/12/04 13:35:06;;;;;;;3.00;2.27;;;;;;;;;;5079118;28;20224;-69
2021/12/04 13:37:35;;;;;;;1.50;1.40;;;;;;;;;;5087121;28;20205;-68
2021/12/04 13:40:06;;;;;;;1.60;1.50;;;;;;;;;;5094453;28;20233;-68
2021/12/04 13:42:35;;;;;;;2.20;2.00;;;;;;;;;;5079277;28;20677;-68
2021/12/04 13:45:04;;;;;;;2.17;1.70;;;;;;;;;;5079192;28;20210;-68
2021/12/04 13:47:32;;;;;;;2.27;1.80;;;;;;;;;;5079181;28;20230;-66
2021/12/04 13:50:01;;;;;;;2.30;2.10;;;;;;;;;;5078858;28;20232;-65
2021/12/04 13:52:31;;;;;;;4.67;2.43;;;;;;;;;;5088491;28;20198;-65
2021/12/04 13:55:03;;;;;;;3.70;1.87;;;;;;;;;;5094178;28;20222;-65
2021/12/04 13:57:33;;;;;;;2.70;1.73;;;;;;;;;;5090531;28;20194;-64
2021/12/04 14:00:03;;;;;;;1.63;1.53;;;;;;;;;;5089156;28;20261;-64
2021/12/04 14:02:32;;;;;;;2.20;1.80;;;;;;;;;;5092737;28;20197;-63
2021/12/04 14:05:02;;;;;;;4.03;1.70;;;;;;;;;;5087468;28;20202;-62
2021/12/04 14:07:31;;;;;;;2.23;1.60;;;;;;;;;;5089061;28;20210;-63
2021/12/04 14:09:59;;;;;;;2.43;1.80;;;;;;;;;;5089677;28;20228;-63
2021/12/04 14:12:32;;;;;;;2.70;1.87;;;;;;;;;;5087947;28;20241;-64
2021/12/04 14:15:00;;;;;;;2.00;1.80;;;;;;;;;;5090038;28;20202;-63
2021/12/04 14:17:28;;;;;;;1.60;1.50;;;;;;;;;;5089435;28;20728;-63
2021/12/04 14:19:56;;;;;;;3.10;2.00;;;;;;;;;;5091248;28;20796;-64
2021/12/04 14:22:24;;;;;;;2.23;2.10;;;;;;;;;;5089460;28;20233;-64
2021/12/04 14:24:55;;;;;;;1.70;1.60;;;;;;;;;;5091907;28;20198;-64
2021/12/04 14:27:25;;;;;;;2.30;1.60;;;;;;;;;;5089125;28;20201;-64
2021/12/04 14:29:56;;;;;;;3.10;2.17;;;;;;;;;;5090139;28;20707;-64
2021/12/04 14:32:24;;;;;;;3.07;2.20;;;;;;;;;;5088932;28;20205;-63
2021/12/04 14:34:56;;;;;;;2.40;1.57;;;;;;;;;;5088118;28;20203;-64
2021/12/04 14:37:24;;;;;;;2.77;1.80;;;;;;;;;;5092814;28;20612;-62
2021/12/04 14:39:53;;;;;;;2.60;2.40;;;;;;;;;;5095247;28;20218;-63
2021/12/04 14:42:22;;;;;;;1.80;1.60;;;;;;;;;;5096901;28;20209;-63
2021/12/04 14:44:51;;;;;;;3.37;1.70;;;;;;;;;;5089407;28;20199;-62
2021/12/04 14:47:21;;;;;;;3.83;1.50;;;;;;;;;;5089527;28;20212;-62
2021/12/04 14:49:51;;;;;;;2.23;1.83;;;;;;;;;;5090552;28;20316;-63
2021/12/04 14:52:20;;;;;;;1.97;1.70;;;;;;;;;;5097150;28;20293;-63
2021/12/04 14:54:49;;;;;;;2.80;2.17;;;;;;;;;;5094620;28;20210;-63
2021/12/04 14:57:19;;;;;;;2.13;1.87;;;;;;;;;;5095298;28;20209;-64
2021/12/04 14:59:47;;;;;;;2.17;1.60;;;;;;;;;;5096982;28;20223;-64
2021/12/04 15:02:16;;;;;;;1.80;1.67;;;;;;;;;;5089224;28;20194;-66
2021/12/04 15:04:46;;;;;;;2.80;2.33;;;;;;;;;;5090661;28;20637;-65
2021/12/04 15:07:21;;;;;;;2.87;2.30;;;;;;;;;;5077402;28;20198;-65
2021/12/04 15:09:49;;;;;;;4.80;3.13;;;;;;;;;;5076995;28;20718;-64
2021/12/04 15:12:27;;;;;;;4.50;3.20;;;;;;;;;;5077760;28;20205;-65
2021/12/04 15:14:56;;;;;;;4.43;2.20;;;;;;;;;;5077867;28;20206;-65
2021/12/04 15:17:24;;;;;;;8.43;4.60;;;;;;;;;;5084815;28;20205;-65
2021/12/04 15:19:59;;;;;;;4.23;2.60;;;;;;;;;;5097354;28;20704;-64
2021/12/04 15:22:32;;;;;;;4.87;3.00;;;;;;;;;;5097609;28;20209;-65
2021/12/04 15:25:02;;;;;;;3.43;2.50;;;;;;;;;;5097519;28;20209;-66
2021/12/04 15:27:30;;;;;;;3.73;2.77;;;;;;;;;;5097566;28;20233;-65
2021/12/04 15:29:59;;;;;;;3.87;3.00;;;;;;;;;;5096177;28;20227;-65
2021/12/04 15:32:28;;;;;;;3.93;2.30;;;;;;;;;;5097844;28;20209;-65
2021/12/04 15:35:03;;;;;;;3.97;2.33;;;;;;;;;;5097492;28;20233;-65
2021/12/04 15:37:35;;;;;;;3.47;2.73;;;;;;;;;;5096246;28;20679;-65
2021/12/04 15:40:05;;;;;;;3.13;2.43;;;;;;;;;;5085166;28;20308;-65
2021/12/04 15:42:47;;;;;;;4.03;2.50;;;;;;;;;;5077226;28;20288;-65
2021/12/04 15:45:31;;;;;;;3.30;2.47;;;;;;;;;;5077143;28;20717;-65
2021/12/04 15:48:28;;;;;;;4.77;3.23;;;;;;;;;;5084635;28;20315;-65
2021/12/04 15:53:49;;;;;;;5.50;3.30;;;;;;;;;;5092392;28;20197;-66
2021/12/04 15:56:27;;;;;;;5.57;3.73;;;;;;;;;;5097484;28;20209;-65
2021/12/04 15:58:55;;;;;;;4.97;3.73;;;;;;;;;;5097207;28;20704;-65
2021/12/04 16:01:27;;;;;;;4.70;3.83;;;;;;;;;;5091713;28;20212;-65
2021/12/04 16:03:55;;;;;;;6.03;3.60;;;;;;;;;;5089133;28;20202;-65
2021/12/04 16:06:36;;;;;;;5.17;3.30;;;;;;;;;;5088510;28;20206;-65
2021/12/04 16:09:04;;;;;;;3.33;2.73;;;;;;;;;;5087526;28;20226;-65
2021/12/04 16:11:35;;;;;;;4.83;3.80;;;;;;;;;;5079130;28;20579;-65
2021/12/04 16:14:04;;;;;;;5.87;4.13;;;;;;;;;;5079269;28;20207;-65
2021/12/04 16:16:33;;;;;;;5.40;3.67;;;;;;;;;;5081040;28;20210;-65
2021/12/04 16:19:03;;;;;;;5.80;3.97;;;;;;;;;;5094895;28;20221;-64
2021/12/04 16:21:34;;;;;;;7.10;4.90;;;;;;;;;;5092321;28;20285;-65
2021/12/04 16:24:05;;;;;;;5.77;4.07;;;;;;;;;;5091581;28;20204;-65
2021/12/04 16:26:33;;;;;;;6.27;3.93;;;;;;;;;;5092497;28;20668;-65
2021/12/04 16:29:08;;;;;;;7.13;4.77;;;;;;;;;;5092184;28;20232;-65
2021/12/04 16:32:00;;;;;;;6.67;5.07;;;;;;;;;;5092197;28;20697;-65
2021/12/04 16:37:20;;;;;;;5.20;3.67;;;;;;;;;;5084086;28;20244;-65
2021/12/04 16:39:48;;;;;;;3.47;2.90;;;;;;;;;;5083535;28;20224;-67
2021/12/04 16:42:16;;;;;;;2.80;1.77;;;;;;;;;;5080125;28;20234;-67
2021/12/04 16:44:44;;;;;;;3.33;1.20;;;;;;;;;;5080439;28;20210;-67
2021/12/04 16:47:12;;;;;;;3.50;1.67;;;;;;;;;;5080769;28;20216;-67
2021/12/04 16:49:40;;;;;;;2.13;0.70;;;;;;;;;;5091311;28;20236;-67
2021/12/04 16:55:17;;;;;;;2.00;1.00;;;;;;;;;;5089911;28;20201;-67
2021/12/04 16:57:51;;;;;;;0.70;0.70;;;;;;;;;;5089892;28;20691;-67
2021/12/04 17:00:21;;;;;;;2.33;0.83;;;;;;;;;;5090532;28;20276;-67
2021/12/04 17:02:49;;;;;;;0.80;0.80;;;;;;;;;;5090478;28;20294;-67
2021/12/04 17:05:18;;;;;;;0.83;0.83;;;;;;;;;;5090145;28;20248;-67
2021/12/04 17:07:46;;;;;;;1.47;0.97;;;;;;;;;;5090805;28;20204;-67
2021/12/04 17:10:15;;;;;;;0.87;0.77;;;;;;;;;;5089701;28;20221;-66
2021/12/04 17:12:43;;;;;;;0.80;0.70;;;;;;;;;;5090104;28;20197;-66
2021/12/04 17:15:12;;;;;;;0.50;0.50;;;;;;;;;;5091661;28;20193;-66
2021/12/04 17:17:43;;;;;;;1.90;0.67;;;;;;;;;;5089944;28;20204;-67
2021/12/04 17:20:11;;;;;;;2.80;0.70;;;;;;;;;;5088944;28;20199;-66
2021/12/04 17:22:39;;;;;;;1.70;0.73;;;;;;;;;;5090246;28;20278;-66
2021/12/04 17:25:08;;;;;;;0.80;0.80;;;;;;;;;;5090335;28;20277;-67
2021/12/04 17:27:37;;;;;;;1.23;0.93;;;;;;;;;;5089506;28;20198;-67
2021/12/04 17:30:07;;;;;;;4.40;0.80;;;;;;;;;;5087220;28;20214;-68
2021/12/04 17:32:35;;;;;;;2.93;2.73;;;;;;;;;;5090101;28;20198;-69
2021/12/04 17:35:04;;;;;;;5.13;2.63;;;;;;;;;;5091719;28;20566;-69
2021/12/04 17:37:32;;;;;;;3.87;1.63;;;;;;;;;;5092355;28;20205;-67
2021/12/04 17:40:00;;;;;;;2.10;1.33;;;;;;;;;;5090420;28;20218;-67